Time;durP1;ratioP1;P1;durP2;ratioP2;P2;SDS_P1;SDS_P2;PMS_P1;PMS_P2;Temp;Humidity;BMP_temperature;BMP_pressure;BME280_temperature;BME280_humidity;BME280_pressure;Samples;Min_cycle;Max_cycle;Signal;HPM_P1;HPM_P2
2023/07/11 00:00:18;;;;;;;;;;;20.00;99.90;;;;;;5027259;28;20045;-63
2023/07/11 00:02:47;;;;;;;10.75;6.13;;;19.80;99.90;;;;;;5030069;28;19964;-63
2023/07/11 00:05:15;;;;;;;10.73;6.38;;;19.80;99.90;;;;;;5029951;28;20056;-62
2023/07/11 00:07:43;;;;;;;8.73;5.80;;;19.70;99.90;;;;;;5029899;28;20059;-63
2023/07/11 00:10:14;;;;;;;9.23;6.07;;;19.80;99.90;;;;;;5030540;28;20564;-62
2023/07/11 00:12:41;;;;;;;10.27;6.45;;;19.90;99.90;;;;;;5030273;28;20056;-63
2023/07/11 00:15:10;;;;;;;11.00;6.47;;;20.00;99.90;;;;;;5021122;28;20045;-63
2023/07/11 00:17:37;;;;;;;12.88;6.25;;;20.00;99.90;;;;;;5029658;28;20048;-63
2023/07/11 00:20:05;;;;;;;7.93;5.78;;;20.00;99.90;;;;;;5030464;28;20482;-63
2023/07/11 00:22:32;;;;;;;10.60;5.97;;;19.90;99.90;;;;;;5031285;28;20045;-63
2023/07/11 00:24:59;;;;;;;11.38;6.55;;;19.90;99.90;;;;;;5030094;28;20095;-63
2023/07/11 00:27:26;;;;;;;10.77;6.82;;;19.90;99.90;;;;;;5030932;28;20041;-63
2023/07/11 00:29:53;;;;;;;9.70;6.45;;;19.80;99.90;;;;;;5030186;28;20033;-63
2023/07/11 00:32:21;;;;;;;10.30;6.10;;;19.80;99.90;;;;;;5029948;28;20418;-63
2023/07/11 00:34:48;;;;;;;8.75;6.10;;;19.70;99.90;;;;;;5029111;28;20107;-63
2023/07/11 00:37:15;;;;;;;10.52;6.60;;;19.70;99.90;;;;;;5034865;28;20045;-63
2023/07/11 00:39:42;;;;;;;12.65;6.25;;;19.70;99.90;;;;;;5030203;28;20045;-63
2023/07/11 00:42:10;;;;;;;13.15;6.10;;;19.70;99.90;;;;;;5030975;28;20050;-63
2023/07/11 00:44:57;;;;;;;9.45;5.65;;;19.60;99.90;;;;;;5008549;28;20038;-63
2023/07/11 00:47:26;;;;;;;10.73;6.65;;;19.50;99.90;;;;;;5024029;28;20080;-63
2023/07/11 00:49:56;;;;;;;11.20;6.65;;;19.50;99.90;;;;;;5013033;28;20095;-63
2023/07/11 00:52:24;;;;;;;10.98;6.40;;;19.50;99.90;;;;;;5030678;28;20034;-63
2023/07/11 00:54:52;;;;;;;;;;;19.60;99.90;;;;;;5027672;28;20414;-63
2023/07/11 00:57:23;;;;;;;11.73;6.50;;;19.60;99.90;;;;;;5007377;28;20020;-63
2023/07/11 00:59:51;;;;;;;11.35;6.65;;;19.40;99.90;;;;;;5029919;28;20041;-63
2023/07/11 01:02:21;;;;;;;11.73;6.53;;;19.30;99.90;;;;;;5030540;28;20045;-63
2023/07/11 01:04:48;;;;;;;14.25;6.55;;;19.10;99.90;;;;;;5029400;28;20036;-63
2023/07/11 01:07:19;;;;;;;12.88;6.90;;;19.10;99.90;;;;;;4999695;28;20053;-63
2023/07/11 01:09:46;;;;;;;13.43;6.28;;;19.00;99.90;;;;;;5027671;28;20040;-63
2023/07/11 01:12:15;;;;;;;12.02;6.43;;;19.00;99.90;;;;;;5030987;28;20053;-63
2023/07/11 01:14:47;;;;;;;14.38;6.53;;;19.00;99.90;;;;;;5008468;28;20045;-63
2023/07/11 01:17:21;;;;;;;13.43;7.13;;;19.10;99.90;;;;;;5005876;28;20075;-63
2023/07/11 01:19:49;;;;;;;13.32;7.15;;;19.10;99.90;;;;;;5034033;28;20037;-63
2023/07/11 01:22:16;;;;;;;14.15;7.00;;;19.20;99.90;;;;;;5016362;28;20041;-63
2023/07/11 01:24:42;;;;;;;12.07;6.85;;;19.20;99.90;;;;;;5025195;28;20046;-63
2023/07/11 01:27:09;;;;;;;13.75;7.53;;;19.20;99.90;;;;;;5008510;28;20041;-63
2023/07/11 01:29:36;;;;;;;10.93;6.75;;;19.20;99.90;;;;;;5015668;28;20053;-63
2023/07/11 01:32:04;;;;;;;15.38;7.13;;;19.30;99.90;;;;;;5032840;28;20042;-63
2023/07/11 01:34:32;;;;;;;13.23;6.38;;;19.30;99.90;;;;;;5015430;28;20048;-61
2023/07/11 01:36:58;;;;;;;10.20;6.70;;;19.30;99.90;;;;;;5032074;28;20648;-63
2023/07/11 01:39:25;;;;;;;9.63;6.15;;;19.30;99.90;;;;;;5016025;28;20048;-63
2023/07/11 01:41:52;;;;;;;11.60;6.70;;;19.30;99.90;;;;;;5013142;28;20052;-63
2023/07/11 01:44:21;;;;;;;10.98;6.38;;;19.30;99.90;;;;;;5028568;28;20397;-63
2023/07/11 01:46:48;;;;;;;10.55;6.25;;;19.40;99.90;;;;;;5032704;28;20129;-63
2023/07/11 01:49:15;;;;;;;9.30;5.85;;;19.40;99.90;;;;;;5016193;28;20045;-63
2023/07/11 01:51:46;;;;;;;11.45;6.70;;;19.40;99.90;;;;;;5010560;28;20238;-63
2023/07/11 01:54:13;;;;;;;11.13;6.45;;;19.40;99.90;;;;;;5018617;28;20453;-63
2023/07/11 01:56:40;;;;;;;10.95;6.72;;;19.40;99.90;;;;;;5032554;28;20041;-63
2023/07/11 01:59:07;;;;;;;10.50;6.38;;;19.70;99.90;;;;;;5011910;28;20046;-63
2023/07/11 02:01:34;;;;;;;10.60;6.80;;;19.30;99.90;;;;;;5020217;28;20413;-63
2023/07/11 02:04:01;;;;;;;11.95;6.97;;;19.30;99.90;;;;;;5032419;28;20461;-63
2023/07/11 02:06:28;;;;;;;13.85;6.72;;;19.10;99.90;;;;;;5031614;28;20037;-63
2023/07/11 02:08:55;;;;;;;13.05;8.05;;;18.80;99.90;;;;;;5033885;28;20045;-63
2023/07/11 02:11:22;;;;;;;9.02;7.03;;;18.70;99.90;;;;;;5022722;28;20038;-63
2023/07/11 02:13:49;;;;;;;10.55;6.82;;;18.70;99.90;;;;;;5031742;28;20069;-63
2023/07/11 02:16:15;;;;;;;10.85;7.32;;;18.70;99.90;;;;;;5032011;28;20124;-63
2023/07/11 02:18:42;;;;;;;14.13;7.20;;;18.70;99.90;;;;;;5033522;28;20099;-63
2023/07/11 02:21:09;;;;;;;15.23;7.03;;;18.70;99.90;;;;;;5029086;28;20499;-63
2023/07/11 02:23:36;;;;;;;12.60;8.05;;;18.80;99.90;;;;;;5025443;28;20095;-63
2023/07/11 02:26:03;;;;;;;10.52;7.35;;;18.80;99.90;;;;;;5031975;28;20506;-63
2023/07/11 02:28:30;;;;;;;10.32;7.25;;;18.80;99.90;;;;;;5033360;28;20040;-63
2023/07/11 02:30:56;;;;;;;11.07;7.88;;;18.80;99.90;;;;;;5031523;28;20046;-63
2023/07/11 02:33:23;;;;;;;9.57;6.55;;;18.70;99.90;;;;;;5026766;28;20038;-63
2023/07/11 02:35:50;;;;;;;10.90;7.38;;;18.70;99.90;;;;;;5031517;28;20041;-63
2023/07/11 02:38:17;;;;;;;12.25;7.53;;;18.70;99.90;;;;;;5032234;28;20042;-63
2023/07/11 02:40:44;;;;;;;11.15;6.72;;;18.70;99.90;;;;;;5032546;28;20513;-63
2023/07/11 02:43:10;;;;;;;10.43;6.82;;;18.60;99.90;;;;;;5028369;28;20034;-63
2023/07/11 02:45:37;;;;;;;12.00;8.32;;;18.40;99.90;;;;;;5029458;28;20463;-63
2023/07/11 02:48:04;;;;;;;10.13;6.85;;;18.30;99.90;;;;;;5032033;28;20099;-63
2023/07/11 02:50:31;;;;;;;12.48;7.40;;;18.20;99.90;;;;;;5032437;28;20038;-63
2023/07/11 02:52:58;;;;;;;12.27;7.55;;;18.20;99.90;;;;;;5026128;28;20236;-63
2023/07/11 02:55:25;;;;;;;10.65;7.85;;;18.20;99.90;;;;;;5019417;28;20042;-63
2023/07/11 02:57:52;;;;;;;12.77;8.90;;;18.20;99.90;;;;;;5021450;28;20525;-63
2023/07/11 03:00:18;;;;;;;16.70;8.10;;;18.30;99.90;;;;;;5032122;28;20502;-63
2023/07/11 03:02:45;;;;;;;11.50;8.23;;;18.30;99.90;;;;;;5032261;28;20029;-63
2023/07/11 03:05:12;;;;;;;14.38;8.73;;;18.30;99.90;;;;;;5024992;28;20045;-63
2023/07/11 03:07:40;;;;;;;;;;;18.30;99.90;;;;;;5032769;28;20045;-63
2023/07/11 03:10:07;;;;;;;12.55;7.22;;;18.30;99.90;;;;;;5031514;28;20012;-63
2023/07/11 03:12:34;;;;;;;15.70;7.88;;;18.30;99.90;;;;;;5030862;28;20064;-63
2023/07/11 03:15:01;;;;;;;13.77;7.95;;;18.20;99.90;;;;;;5031789;28;20046;-63
2023/07/11 03:17:30;;;;;;;13.75;7.70;;;18.10;99.90;;;;;;5030864;28;20037;-63
2023/07/11 03:19:57;;;;;;;9.73;7.10;;;17.90;99.90;;;;;;5032269;28;20472;-63
2023/07/11 03:22:24;;;;;;;12.35;8.63;;;17.80;99.90;;;;;;5025490;28;20494;-63
2023/07/11 03:24:51;;;;;;;17.73;8.80;;;17.70;99.90;;;;;;5024677;28;20061;-63
2023/07/11 03:27:17;;;;;;;16.73;10.10;;;17.60;99.90;;;;;;5023659;28;20043;-63
2023/07/11 03:29:44;;;;;;;16.17;10.32;;;17.60;99.90;;;;;;5031429;28;20045;-63
2023/07/11 03:32:11;;;;;;;11.75;8.88;;;17.60;99.90;;;;;;5032137;28;20048;-63
2023/07/11 03:34:38;;;;;;;14.52;9.80;;;17.70;99.90;;;;;;5024886;28;20033;-63
2023/07/11 03:37:19;;;;;;;12.82;9.25;;;17.70;99.90;;;;;;5030946;28;20047;-63
2023/07/11 03:39:46;;;;;;;14.02;10.00;;;17.80;99.90;;;;;;5031762;28;20046;-63
2023/07/11 03:42:13;;;;;;;16.90;10.80;;;17.90;99.90;;;;;;5027151;28;20041;-63
2023/07/11 03:44:42;;;;;;;15.25;10.45;;;18.00;99.90;;;;;;5029225;28;20113;-63
2023/07/11 03:47:08;;;;;;;13.05;10.00;;;18.00;99.90;;;;;;5029594;28;20041;-63
2023/07/11 03:49:35;;;;;;;17.63;10.82;;;18.10;99.90;;;;;;5032080;28;20047;-63
2023/07/11 03:52:02;;;;;;;16.08;10.30;;;18.20;99.90;;;;;;5030597;28;20057;-63
2023/07/11 03:54:29;;;;;;;18.92;12.02;;;18.30;99.90;;;;;;5031662;28;20037;-63
2023/07/11 03:56:56;;;;;;;14.13;9.75;;;18.40;99.90;;;;;;5030194;28;20462;-63
2023/07/11 03:59:22;;;;;;;17.45;10.13;;;18.50;99.90;;;;;;5031778;28;20041;-63
2023/07/11 04:01:49;;;;;;;14.55;10.82;;;18.60;99.90;;;;;;5030611;28;20029;-63
2023/07/11 04:04:16;;;;;;;15.45;10.77;;;18.60;99.90;;;;;;5027729;28;20493;-63
2023/07/11 04:06:43;;;;;;;17.58;10.02;;;18.60;99.90;;;;;;5027851;28;20049;-63
2023/07/11 04:09:09;;;;;;;15.02;10.18;;;18.70;99.90;;;;;;5031604;28;20060;-63
2023/07/11 04:11:36;;;;;;;12.93;8.07;;;18.70;99.90;;;;;;5030441;28;20054;-63
2023/07/11 04:14:03;;;;;;;11.05;8.48;;;18.60;99.90;;;;;;5013603;28;20052;-63
2023/07/11 04:16:30;;;;;;;15.32;9.68;;;18.50;99.90;;;;;;5029295;28;20045;-63
2023/07/11 04:18:57;;;;;;;16.85;10.10;;;18.50;99.90;;;;;;5021386;28;20045;-63
2023/07/11 04:21:24;;;;;;;15.05;9.00;;;18.50;99.90;;;;;;5014884;28;20033;-63
2023/07/11 04:23:50;;;;;;;16.75;9.82;;;18.60;99.90;;;;;;5030618;28;20060;-63
2023/07/11 04:26:17;;;;;;;16.75;9.38;;;18.60;99.90;;;;;;5030753;28;20045;-63
2023/07/11 04:28:44;;;;;;;17.60;9.77;;;18.70;99.90;;;;;;5021521;28;20046;-63
2023/07/11 04:31:11;;;;;;;19.48;11.80;;;18.80;99.90;;;;;;5025800;28;20037;-63
2023/07/11 04:33:37;;;;;;;14.20;10.73;;;18.80;99.90;;;;;;5030272;28;20116;-63
2023/07/11 04:36:13;;;;;;;15.85;10.88;;;18.90;99.90;;;;;;5030604;28;20501;-63
2023/07/11 04:38:40;;;;;;;14.05;10.00;;;18.90;99.90;;;;;;5025975;28;20658;-63
2023/07/11 04:41:08;;;;;;;15.65;10.75;;;18.90;99.90;;;;;;5023151;28;20060;-63
2023/07/11 04:43:34;;;;;;;15.20;10.55;;;19.00;99.90;;;;;;5024561;28;20045;-63
2023/07/11 04:46:03;;;;;;;17.50;10.13;;;19.00;99.90;;;;;;5029236;28;20034;-63
2023/07/11 04:48:32;;;;;;;14.05;9.90;;;19.10;99.90;;;;;;5028743;28;20072;-63
2023/07/11 04:51:02;;;;;;;18.95;10.02;;;19.10;99.90;;;;;;5025079;28;20085;-63
2023/07/11 04:53:30;;;;;;;14.63;9.57;;;19.20;99.90;;;;;;5032134;28;20048;-63
2023/07/11 04:56:05;;;;;;;19.23;9.88;;;19.20;99.90;;;;;;5035000;28;20052;-63
2023/07/11 04:58:34;;;;;;;15.93;10.50;;;19.30;99.90;;;;;;5023067;28;20100;-63
2023/07/11 05:01:01;;;;;;;15.60;10.35;;;19.30;99.90;;;;;;5033582;28;20136;-63
2023/07/11 05:03:29;;;;;;;14.45;10.57;;;19.40;99.90;;;;;;5029741;28;20065;-63
2023/07/11 05:05:56;;;;;;;21.08;11.00;;;19.30;99.90;;;;;;5033637;28;20041;-63
2023/07/11 05:08:24;;;;;;;19.00;10.60;;;19.40;99.90;;;;;;5034370;28;20042;-63
2023/07/11 05:11:07;;;;;;;15.55;9.68;;;19.40;99.90;;;;;;5034954;28;20037;-63
2023/07/11 05:13:34;;;;;;;17.05;10.38;;;19.40;99.90;;;;;;5021699;28;20040;-63
2023/07/11 05:16:06;;;;;;;13.57;10.00;;;19.50;99.90;;;;;;5025734;28;20053;-63
2023/07/11 05:18:40;;;;;;;14.25;10.52;;;19.50;99.90;;;;;;5033118;28;20137;-63
2023/07/11 05:21:13;;;;;;;16.80;10.70;;;19.60;99.90;;;;;;5024863;28;20052;-63
2023/07/11 05:23:40;;;;;;;15.77;9.93;;;19.60;99.90;;;;;;5033001;28;20042;-63
2023/07/11 05:26:07;;;;;;;17.48;9.95;;;19.70;99.90;;;;;;5025709;28;20049;-63
2023/07/11 05:28:35;;;;;;;15.48;9.27;;;19.70;99.90;;;;;;5012562;28;20121;-63
2023/07/11 05:31:04;;;;;;;19.00;10.15;;;19.70;99.90;;;;;;5029493;28;20044;-63
2023/07/11 05:33:31;;;;;;;17.08;9.80;;;19.80;99.90;;;;;;5030680;28;20409;-62
2023/07/11 05:36:18;;;;;;;;;;;20.00;99.90;;;;;;5032299;28;20053;-63
2023/07/11 05:38:45;;;;;;;15.82;10.00;;;20.00;99.90;;;;;;5028596;28;19921;-63
2023/07/11 05:41:11;;;;;;;16.17;9.88;;;20.00;99.90;;;;;;5034539;28;20402;-63
2023/07/11 05:43:38;;;;;;;16.65;9.23;;;20.10;99.90;;;;;;5028307;28;20045;-63
2023/07/11 05:46:05;;;;;;;15.05;9.32;;;20.10;99.90;;;;;;5033914;28;20037;-63
2023/07/11 05:48:32;;;;;;;13.55;9.15;;;20.10;99.90;;;;;;5033086;28;20092;-62
2023/07/11 05:51:11;;;;;;;15.07;9.88;;;20.20;99.90;;;;;;5033997;28;20120;-63
2023/07/11 05:53:38;;;;;;;20.52;10.00;;;20.30;99.90;;;;;;5027927;28;20049;-62
2023/07/11 05:56:05;;;;;;;13.43;10.32;;;20.30;99.90;;;;;;5033556;28;20046;-63
2023/07/11 05:58:34;;;;;;;14.32;10.00;;;20.30;99.90;;;;;;5032859;28;20049;-63
2023/07/11 06:01:01;;;;;;;14.52;9.88;;;20.40;99.90;;;;;;5034005;28;20406;-63
2023/07/11 06:03:30;;;;;;;18.90;10.70;;;20.40;99.90;;;;;;5014094;28;20045;-63
2023/07/11 06:06:02;;;;;;;15.35;10.27;;;20.50;99.90;;;;;;5032745;28;20052;-63
2023/07/11 06:08:30;;;;;;;18.50;9.38;;;20.60;99.90;;;;;;5032531;28;20038;-62
2023/07/11 06:10:58;;;;;;;15.30;9.27;;;20.70;99.90;;;;;;5033650;28;20038;-63
2023/07/11 06:13:27;;;;;;;15.43;9.48;;;20.80;99.90;;;;;;5027392;28;20046;-63
2023/07/11 06:16:02;;;;;;;17.08;10.77;;;20.90;99.90;;;;;;5024991;28;20049;-63
2023/07/11 06:18:32;;;;;;;14.48;10.38;;;21.00;99.90;;;;;;5032501;28;20052;-62
2023/07/11 06:20:59;;;;;;;14.82;10.05;;;21.10;99.90;;;;;;5033809;28;20047;-63
2023/07/11 06:23:25;;;;;;;14.82;9.45;;;21.20;99.90;;;;;;5018682;28;20042;-63
2023/07/11 06:25:52;;;;;;;16.65;10.75;;;21.30;99.90;;;;;;5032973;28;20033;-63
2023/07/11 06:28:19;;;;;;;19.27;10.60;;;21.40;99.90;;;;;;5030482;28;20038;-62
2023/07/11 06:30:47;;;;;;;16.70;10.07;;;21.50;99.90;;;;;;5032829;28;20393;-62
2023/07/11 06:33:14;;;;;;;17.67;9.85;;;21.40;99.90;;;;;;5031252;28;20045;-62
2023/07/11 06:35:41;;;;;;;16.88;10.57;;;21.80;99.90;;;;;;5032340;28;20037;-63
2023/07/11 06:38:08;;;;;;;16.08;9.57;;;21.90;99.90;;;;;;5024326;28;20064;-63
2023/07/11 06:40:35;;;;;;;16.70;10.73;;;22.00;99.90;;;;;;5029859;28;20042;-63
2023/07/11 06:43:05;;;;;;;12.98;9.40;;;22.10;99.90;;;;;;5031430;28;20129;-63
2023/07/11 06:45:32;;;;;;;16.95;10.00;;;22.20;99.90;;;;;;5032602;28;20041;-63
2023/07/11 06:47:59;;;;;;;14.57;9.90;;;22.20;99.90;;;;;;5032073;28;20053;-63
2023/07/11 06:50:25;;;;;;;13.07;10.18;;;22.30;99.90;;;;;;5032828;28;20037;-63
2023/07/11 06:52:52;;;;;;;13.10;9.48;;;22.50;99.90;;;;;;5032352;28;20041;-61
2023/07/11 06:55:19;;;;;;;16.35;9.90;;;22.60;99.90;;;;;;5031661;28;20053;-63
2023/07/11 06:57:46;;;;;;;13.82;9.55;;;22.80;99.90;;;;;;5032444;28;20037;-63
2023/07/11 07:00:13;;;;;;;14.80;10.20;;;23.00;99.90;;;;;;5031792;28;20383;-62
2023/07/11 07:02:40;;;;;;;16.85;9.88;;;23.10;99.90;;;;;;5032218;28;20129;-63
2023/07/11 07:05:07;;;;;;;14.35;9.60;;;23.20;99.90;;;;;;5031455;28;20127;-63
2023/07/11 07:07:34;;;;;;;15.45;10.05;;;23.40;99.90;;;;;;5032219;28;20569;-63
2023/07/11 07:10:01;;;;;;;18.98;10.80;;;23.50;99.90;;;;;;5031667;28;20498;-63
2023/07/11 07:12:28;;;;;;;14.77;9.60;;;23.70;99.90;;;;;;5032400;28;20056;-63
2023/07/11 07:14:54;;;;;;;14.68;9.27;;;23.80;99.90;;;;;;5030615;28;20064;-63
2023/07/11 07:17:21;;;;;;;16.60;9.63;;;24.00;99.90;;;;;;5031564;28;20414;-63
2023/07/11 07:19:48;;;;;;;;;;;24.00;99.90;;;;;;5031919;28;20045;-63
2023/07/11 07:22:15;;;;;;;12.32;9.65;;;24.10;99.90;;;;;;5030497;28;19960;-63
2023/07/11 07:24:43;;;;;;;12.85;10.00;;;24.30;99.90;;;;;;5027250;28;20072;-63
2023/07/11 07:27:11;;;;;;;15.90;10.52;;;24.40;99.90;;;;;;5031183;28;20498;-63
2023/07/11 07:29:54;;;;;;;16.30;10.40;;;24.70;99.90;;;;;;5031823;28;20041;-63
2023/07/11 07:32:20;;;;;;;14.90;9.93;;;24.90;99.90;;;;;;5030507;28;20128;-63
2023/07/11 07:34:48;;;;;;;12.52;9.90;;;25.00;99.90;;;;;;5032061;28;20069;-63
2023/07/11 07:37:14;;;;;;;;;;;25.20;99.90;;;;;;5031005;28;20049;-62
2023/07/11 07:39:42;;;;;;;14.93;10.43;;;25.30;99.90;;;;;;5032108;28;19928;-63
2023/07/11 07:42:09;;;;;;;15.27;9.73;;;25.50;99.90;;;;;;5030938;28;20069;-63
2023/07/11 07:44:36;;;;;;;18.63;10.25;;;25.60;99.90;;;;;;5031664;28;20037;-63
2023/07/11 07:47:03;;;;;;;;;;;25.80;99.90;;;;;;5030975;28;20490;-63
2023/07/11 07:49:29;;;;;;;14.43;9.32;;;26.00;99.90;;;;;;5032211;28;19921;-61
2023/07/11 07:52:11;;;;;;;14.20;9.68;;;26.00;99.90;;;;;;5028063;28;20041;-62
2023/07/11 07:54:37;;;;;;;14.68;10.00;;;26.10;99.90;;;;;;5030823;28;20045;-63
2023/07/11 07:57:05;;;;;;;14.70;8.85;;;26.10;99.90;;;;;;5023586;28;20060;-63
2023/07/11 07:59:31;;;;;;;11.48;8.88;;;26.20;99.90;;;;;;5000691;28;20072;-62
2023/07/11 08:01:58;;;;;;;14.35;9.13;;;26.30;99.90;;;;;;5029929;28;20037;-63
2023/07/11 08:04:25;;;;;;;14.48;9.32;;;26.40;99.90;;;;;;5031068;28;20882;-63
2023/07/11 08:06:52;;;;;;;;;;;26.60;99.90;;;;;;5030753;28;20044;-62
2023/07/11 08:09:18;;;;;;;14.85;8.90;;;26.70;99.90;;;;;;5030099;28;19921;-63
2023/07/11 08:11:45;;;;;;;13.88;8.77;;;26.80;99.90;;;;;;5029215;28;20430;-63
2023/07/11 08:14:13;;;;;;;12.68;9.43;;;26.90;99.90;;;;;;5030563;28;20041;-63
2023/07/11 08:16:40;;;;;;;18.48;10.02;;;27.00;99.90;;;;;;5030819;28;20505;-63
2023/07/11 08:19:07;;;;;;;12.35;9.13;;;27.20;99.90;;;;;;5030832;28;20052;-63
2023/07/11 08:21:35;;;;;;;;;;;27.40;99.90;;;;;;5030600;28;20046;-63
2023/07/11 08:24:02;;;;;;;;;;;27.60;99.90;;;;;;5031726;28;19924;-63
2023/07/11 08:26:29;;;;;;;11.35;9.25;;;27.70;99.90;;;;;;5028091;28;19921;-63
2023/07/11 08:28:56;;;;;;;13.20;9.55;;;27.60;99.90;;;;;;5030218;28;20200;-62
2023/07/11 08:31:23;;;;;;;12.57;9.25;;;27.80;99.90;;;;;;5030637;28;20116;-63
2023/07/11 08:33:50;;;;;;;;;;;27.90;99.90;;;;;;5029169;28;20482;-63
2023/07/11 08:36:17;;;;;;;13.68;9.60;;;27.90;99.90;;;;;;5030279;28;19921;-64
2023/07/11 08:38:45;;;;;;;16.77;9.38;;;28.00;99.90;;;;;;5031026;28;20045;-63
2023/07/11 08:41:24;;;;;;;14.07;9.90;;;28.10;99.90;;;;;;5031384;28;20049;-63
2023/07/11 08:43:54;;;;;;;10.95;9.57;;;28.10;99.90;;;;;;5017673;28;20279;-63
2023/07/11 08:46:23;;;;;;;14.13;8.98;;;28.10;99.90;;;;;;5026949;28;20045;-64
2023/07/11 08:48:58;;;;;;;14.38;9.15;;;28.20;99.90;;;;;;5029189;28;20103;-61
2023/07/11 08:51:34;;;;;;;11.98;9.05;;;28.40;99.90;;;;;;5030803;28;20045;-63
2023/07/11 08:54:20;;;;;;;13.60;9.18;;;28.50;99.90;;;;;;5029189;28;20037;-63
2023/07/11 08:56:49;;;;;;;13.60;9.73;;;28.70;99.90;;;;;;5030794;28;20050;-63
2023/07/11 08:59:35;;;;;;;12.75;10.07;;;28.70;99.90;;;;;;5029992;28;20514;-63
2023/07/11 09:02:20;;;;;;;15.50;10.05;;;28.90;99.90;;;;;;5030090;28;20395;-63
2023/07/11 09:04:52;;;;;;;15.82;9.43;;;28.90;99.90;;;;;;5022750;28;20517;-63
2023/07/11 09:07:38;;;;;;;15.60;9.55;;;29.10;99.90;;;;;;5029638;28;20042;-63
2023/07/11 09:10:22;;;;;;;9.70;8.60;;;29.30;99.90;;;;;;5025575;28;20056;-63
2023/07/11 09:13:17;;;;;;;;;;;29.50;99.30;;;;;;5028264;28;20041;-62
2023/07/11 09:16:12;;;;;;;12.00;8.68;;;29.60;99.70;;;;;;5029703;28;19926;-63
2023/07/11 09:19:16;;;;;;;13.02;8.45;;;29.70;99.00;;;;;;5030846;28;20473;-63
2023/07/11 09:22:15;;;;;;;13.50;9.07;;;29.90;99.00;;;;;;5029657;28;20057;-63
2023/07/11 09:24:46;;;;;;;;;;;30.20;98.70;;;;;;5030436;28;20301;-63
2023/07/11 09:27:23;;;;;;;14.93;9.13;;;30.20;97.90;;;;;;5027640;28;20420;-63
2023/07/11 09:29:51;;;;;;;12.50;8.98;;;30.10;98.40;;;;;;5026762;28;20069;-63
2023/07/11 09:32:19;;;;;;;14.02;9.98;;;30.20;98.40;;;;;;5025856;28;20046;-63
2023/07/11 09:34:48;;;;;;;13.50;8.80;;;30.40;97.50;;;;;;5029957;28;20159;-64
2023/07/11 09:37:33;;;;;;;16.75;8.80;;;30.40;97.90;;;;;;5029007;28;20514;-63
2023/07/11 09:40:19;;;;;;;16.95;9.02;;;30.60;96.90;;;;;;5018342;28;20057;-64
2023/07/11 09:42:54;;;;;;;13.70;9.27;;;30.70;97.20;;;;;;5032072;28;20510;-64
2023/07/11 09:45:28;;;;;;;9.82;8.25;;;31.00;97.20;;;;;;5025723;28;20077;-63
2023/07/11 09:48:03;;;;;;;14.73;8.50;;;31.00;97.30;;;;;;5025494;28;20052;-64
2023/07/11 09:50:37;;;;;;;11.98;8.75;;;31.20;98.70;;;;;;5034015;28;20112;-64
2023/07/11 09:53:15;;;;;;;12.85;8.38;;;31.20;98.50;;;;;;5033661;28;20075;-63
2023/07/11 09:55:43;;;;;;;11.68;8.13;;;31.10;98.10;;;;;;5033062;28;20136;-64
2023/07/11 09:58:15;;;;;;;12.50;9.00;;;31.00;97.20;;;;;;5033315;28;20050;-64
2023/07/11 10:00:47;;;;;;;13.73;9.20;;;31.00;97.10;;;;;;5034091;28;20084;-64
2023/07/11 10:03:35;;;;;;;12.57;8.32;;;31.10;97.60;;;;;;5032469;28;20055;-64
2023/07/11 10:06:04;;;;;;;14.77;8.68;;;31.50;97.20;;;;;;5008813;28;20459;-63
2023/07/11 10:08:36;;;;;;;11.98;9.20;;;31.60;96.90;;;;;;5032704;28;20045;-64
2023/07/11 10:11:05;;;;;;;11.23;8.60;;;31.60;98.10;;;;;;5033140;28;20053;-64
2023/07/11 10:13:32;;;;;;;14.90;8.50;;;31.60;97.80;;;;;;5032299;28;20406;-64
2023/07/11 10:16:17;;;;;;;14.40;8.77;;;31.60;97.80;;;;;;5032753;28;20125;-64
2023/07/11 10:18:44;;;;;;;14.00;8.85;;;31.70;97.00;;;;;;5031590;28;20061;-64
2023/07/11 10:21:13;;;;;;;14.30;8.30;;;31.70;97.60;;;;;;5025269;28;20041;-64
2023/07/11 10:23:47;;;;;;;11.75;8.60;;;31.90;96.30;;;;;;5032378;28;20048;-64
2023/07/11 10:26:23;;;;;;;13.20;8.40;;;32.00;96.50;;;;;;5031054;28;20045;-64
2023/07/11 10:29:15;;;;;;;13.32;8.68;;;32.00;95.70;;;;;;5033073;28;20739;-64
2023/07/11 10:32:08;;;;;;;14.65;8.70;;;32.30;95.80;;;;;;5032343;28;20041;-64
2023/07/11 10:34:43;;;;;;;13.98;8.80;;;32.30;96.10;;;;;;5032776;28;20040;-64
2023/07/11 10:37:22;;;;;;;12.27;8.23;;;32.30;95.70;;;;;;5030597;28;20049;-64
2023/07/11 10:39:53;;;;;;;11.98;8.52;;;32.40;95.50;;;;;;5032595;28;20046;-64
2023/07/11 10:42:31;;;;;;;21.63;8.55;;;32.50;97.00;;;;;;5032784;28;20052;-64
2023/07/11 10:45:06;;;;;;;13.27;8.77;;;32.40;95.80;;;;;;5028933;28;20052;-64
2023/07/11 10:47:37;;;;;;;11.50;8.60;;;32.40;95.60;;;;;;5031683;28;20045;-64
2023/07/11 10:50:28;;;;;;;15.57;8.80;;;32.00;95.40;;;;;;5031834;28;20434;-63
2023/07/11 10:53:00;;;;;;;12.30;9.02;;;31.80;95.20;;;;;;5031649;28;20402;-64
2023/07/11 10:55:35;;;;;;;14.52;8.82;;;31.80;95.90;;;;;;5031726;28;20044;-64
2023/07/11 10:58:02;;;;;;;14.63;8.68;;;32.10;94.30;;;;;;5024758;28;20041;-64
2023/07/11 11:00:43;;;;;;;16.92;8.90;;;32.10;95.30;;;;;;5032797;28;20521;-64
2023/07/11 11:03:36;;;;;;;15.80;8.77;;;32.10;96.50;;;;;;5031523;28;20072;-64
2023/07/11 11:06:29;;;;;;;14.57;8.98;;;32.10;95.40;;;;;;5031459;28;20095;-64
2023/07/11 11:09:29;;;;;;;10.80;8.20;;;32.10;94.70;;;;;;5032439;28;20041;-64
2023/07/11 11:12:35;;;;;;;19.00;8.25;;;32.40;94.20;;;;;;5031156;28;20053;-63
2023/07/11 11:15:36;;;;;;;15.98;9.00;;;32.60;94.20;;;;;;5024845;28;20124;-64
2023/07/11 11:18:37;;;;;;;12.27;8.35;;;32.60;94.80;;;;;;5023757;28;20041;-64
2023/07/11 11:21:20;;;;;;;11.35;8.13;;;32.60;94.60;;;;;;5024363;28;20092;-63
2023/07/11 11:24:04;;;;;;;12.73;8.88;;;32.70;94.60;;;;;;5027714;28;20114;-64
2023/07/11 11:26:42;;;;;;;12.80;8.40;;;32.60;93.40;;;;;;5026951;28;20163;-64
2023/07/11 11:29:17;;;;;;;12.63;7.75;;;32.60;93.90;;;;;;5018760;28;20049;-64
2023/07/11 11:32:15;;;;;;;12.75;8.25;;;32.60;94.70;;;;;;5030220;28;20036;-63
2023/07/11 11:34:41;;;;;;;11.18;7.82;;;32.80;93.10;;;;;;5005042;28;20328;-63
2023/07/11 11:38:00;;;;;;;11.02;7.95;;;32.80;93.00;;;;;;5030727;28;20053;-64
2023/07/11 11:40:32;;;;;;;11.73;8.35;;;32.90;93.30;;;;;;4999886;28;20050;-64
2023/07/11 11:43:05;;;;;;;12.25;8.85;;;33.10;92.90;;;;;;5026483;28;20034;-64
2023/07/11 11:45:44;;;;;;;11.20;8.27;;;33.10;93.00;;;;;;5029254;28;20045;-64
2023/07/11 11:48:20;;;;;;;9.23;7.60;;;33.20;93.20;;;;;;5030906;28;20041;-64
2023/07/11 11:51:17;;;;;;;16.58;8.48;;;33.20;90.70;;;;;;5024481;28;20045;-64
2023/07/11 11:53:46;;;;;;;13.15;8.25;;;33.30;91.30;;;;;;5028037;28;20111;-64
2023/07/11 11:56:17;;;;;;;11.02;7.43;;;33.30;91.00;;;;;;5031531;28;20041;-64
2023/07/11 11:58:57;;;;;;;11.65;7.15;;;33.30;90.80;;;;;;5030740;28;20041;-64
2023/07/11 12:01:50;;;;;;;15.77;7.22;;;33.40;90.80;;;;;;5031843;28;20045;-64
2023/07/11 12:04:29;;;;;;;11.50;7.55;;;33.50;89.60;;;;;;5019501;28;20132;-64
2023/07/11 12:07:12;;;;;;;10.73;7.20;;;33.60;87.30;;;;;;5030487;28;20050;-64
2023/07/11 12:09:53;;;;;;;12.40;7.70;;;33.60;90.50;;;;;;5031342;28;20044;-64
2023/07/11 12:12:54;;;;;;;10.27;7.32;;;33.70;87.10;;;;;;5024525;28;20042;-64
2023/07/11 12:15:27;;;;;;;9.98;6.90;;;33.90;86.40;;;;;;5026193;28;20042;-64
2023/07/11 12:17:54;;;;;;;9.13;7.15;;;33.90;85.60;;;;;;5030222;28;20560;-64
2023/07/11 12:20:26;;;;;;;12.27;8.02;;;34.00;84.60;;;;;;5029699;28;20513;-64
2023/07/11 12:22:52;;;;;;;8.18;7.15;;;34.10;85.80;;;;;;5023771;28;20045;-64
2023/07/11 12:25:26;;;;;;;13.57;7.40;;;34.10;85.10;;;;;;5030493;28;20068;-64
2023/07/11 12:27:53;;;;;;;11.98;7.43;;;34.00;85.20;;;;;;5030820;28;20482;-64
2023/07/11 12:30:26;;;;;;;9.30;6.63;;;34.20;85.70;;;;;;5027443;28;20053;-64
2023/07/11 12:33:16;;;;;;;13.77;7.43;;;34.10;85.50;;;;;;5017829;28;20044;-64
2023/07/11 12:35:45;;;;;;;11.48;6.90;;;34.00;86.90;;;;;;5002511;28;20395;-64
2023/07/11 12:38:19;;;;;;;12.15;7.07;;;34.00;85.60;;;;;;5028696;28;20052;-64
2023/07/11 12:41:10;;;;;;;10.18;6.20;;;33.90;86.20;;;;;;5024139;28;20038;-64
2023/07/11 12:43:39;;;;;;;10.75;6.50;;;33.90;83.40;;;;;;5022557;28;20054;-64
2023/07/11 12:46:26;;;;;;;8.90;6.55;;;33.90;83.30;;;;;;5030629;28;20045;-64
2023/07/11 12:48:54;;;;;;;;;;;34.00;83.40;;;;;;5030738;28;20434;-64
2023/07/11 12:51:30;;;;;;;9.60;5.88;;;33.90;84.40;;;;;;5030056;28;19928;-64
2023/07/11 12:54:17;;;;;;;8.65;5.80;;;33.80;83.60;;;;;;5017981;28;20506;-64
2023/07/11 12:56:46;;;;;;;8.20;5.93;;;33.70;82.80;;;;;;5008522;28;20049;-64
2023/07/11 12:59:26;;;;;;;8.05;6.00;;;33.70;82.30;;;;;;5031472;28;20394;-64
2023/07/11 13:01:55;;;;;;;14.43;6.53;;;33.90;82.20;;;;;;5022745;28;20061;-64